Time;durP1;ratioP1;P1;durP2;ratioP2;P2;SDS_P1;SDS_P2;PMS_P1;PMS_P2;Temp;Humidity;BMP_temperature;BMP_pressure;BME280_temperature;BME280_humidity;BME280_pressure;Samples;Min_cycle;Max_cycle;Signal;HPM_P1;HPM_P2
2023/11/15 00:00:12;;;;;;;12.13;6.43;;;;;;;;;;6286350;28;20036;-70
2023/11/15 00:03:16;;;;;;;12.60;7.05;;;;;;;;;;6286599;28;20079;-69
2023/11/15 00:06:19;;;;;;;10.23;7.20;;;;;;;;;;6284357;28;20616;-69
2023/11/15 00:09:21;;;;;;;9.70;5.65;;;;;;;;;;6285617;28;20119;-70
2023/11/15 00:12:24;;;;;;;11.48;6.90;;;;;;;;;;6264731;28;20052;-69
2023/11/15 00:15:27;;;;;;;9.15;6.05;;;;;;;;;;6281769;28;20057;-69
2023/11/15 00:18:32;;;;;;;9.10;6.10;;;;;;;;;;6286446;28;20045;-70
2023/11/15 00:21:34;;;;;;;8.50;5.22;;;;;;;;;;6286274;28;20057;-70
2023/11/15 00:24:38;;;;;;;9.07;6.60;;;;;;;;;;6264515;28;20053;-70
2023/11/15 00:27:40;;;;;;;10.27;5.07;;;;;;;;;;6285940;28;20087;-70
2023/11/15 00:30:42;;;;;;;9.43;6.13;;;;;;;;;;6286298;28;20033;-70
2023/11/15 00:33:44;;;;;;;11.55;5.57;;;;;;;;;;6267680;28;20048;-69
2023/11/15 00:36:47;;;;;;;14.32;6.72;;;;;;;;;;6284751;28;20045;-70
2023/11/15 00:39:49;;;;;;;7.72;5.82;;;;;;;;;;6284493;28;20049;-70
2023/11/15 00:42:51;;;;;;;9.48;5.60;;;;;;;;;;6284647;28;20105;-70
2023/11/15 00:45:53;;;;;;;9.98;5.57;;;;;;;;;;6285106;28;20041;-69
2023/11/15 00:48:56;;;;;;;11.25;6.30;;;;;;;;;;6267720;28;20040;-70
2023/11/15 00:51:58;;;;;;;13.00;5.72;;;;;;;;;;6268586;28;20052;-70
2023/11/15 00:55:00;;;;;;;9.43;5.75;;;;;;;;;;6285441;28;20043;-70
2023/11/15 00:58:08;;;;;;;8.35;5.68;;;;;;;;;;6285343;28;20044;-69
2023/11/15 01:01:11;;;;;;;10.20;5.88;;;;;;;;;;6284839;28;20130;-69
2023/11/15 01:04:13;;;;;;;11.85;6.55;;;;;;;;;;6281763;28;20595;-68
2023/11/15 01:07:15;;;;;;;7.80;5.63;;;;;;;;;;6280449;28;20120;-68
2023/11/15 01:10:19;;;;;;;7.20;5.20;;;;;;;;;;6267202;28;20048;-68
2023/11/15 01:13:21;;;;;;;8.32;6.07;;;;;;;;;;6283242;28;20048;-68
2023/11/15 01:16:23;;;;;;;10.55;4.55;;;;;;;;;;6283944;28;20300;-69
2023/11/15 01:19:26;;;;;;;10.60;5.03;;;;;;;;;;6266107;28;20067;-68
2023/11/15 01:22:28;;;;;;;11.32;5.85;;;;;;;;;;6266354;28;20523;-68
2023/11/15 01:25:31;;;;;;;9.43;6.20;;;;;;;;;;6285419;28;20055;-68
2023/11/15 01:28:33;;;;;;;12.13;6.93;;;;;;;;;;6285393;28;20702;-68
2023/11/15 01:31:35;;;;;;;10.70;6.43;;;;;;;;;;6285744;28;20057;-68
2023/11/15 01:34:37;;;;;;;9.45;5.85;;;;;;;;;;6267834;28;20047;-68
2023/11/15 01:37:39;;;;;;;8.98;5.78;;;;;;;;;;6285789;28;20045;-69
2023/11/15 01:40:42;;;;;;;10.73;6.13;;;;;;;;;;6284809;28;20052;-69
2023/11/15 01:43:44;;;;;;;9.55;6.82;;;;;;;;;;6266046;28;20442;-69
2023/11/15 01:46:50;;;;;;;9.55;5.82;;;;;;;;;;6265380;28;20831;-69
2023/11/15 01:49:53;;;;;;;9.10;5.35;;;;;;;;;;6284793;28;20055;-69
2023/11/15 01:53:00;;;;;;;10.27;6.03;;;;;;;;;;6283929;28;20126;-70
2023/11/15 01:56:03;;;;;;;9.60;5.93;;;;;;;;;;6269533;28;20044;-70
2023/11/15 01:59:06;;;;;;;9.52;6.50;;;;;;;;;;6272216;28;20044;-69
2023/11/15 02:02:08;;;;;;;10.93;6.90;;;;;;;;;;6272271;28;20051;-69
2023/11/15 02:05:10;;;;;;;11.02;6.82;;;;;;;;;;6271397;28;20048;-70
2023/11/15 02:08:13;;;;;;;8.27;5.97;;;;;;;;;;6289666;28;20044;-69
2023/11/15 02:11:15;;;;;;;10.93;7.60;;;;;;;;;;6268117;28;20044;-69
2023/11/15 02:14:17;;;;;;;10.40;5.45;;;;;;;;;;6289765;28;20518;-69
2023/11/15 02:17:19;;;;;;;7.68;5.13;;;;;;;;;;6288699;28;20052;-69
2023/11/15 02:20:22;;;;;;;8.63;4.28;;;;;;;;;;6289060;28;20084;-69
2023/11/15 02:23:26;;;;;;;8.32;4.47;;;;;;;;;;6264146;28;20134;-69
2023/11/15 02:26:28;;;;;;;8.40;4.00;;;;;;;;;;6271595;28;20132;-69
2023/11/15 02:29:30;;;;;;;7.38;4.45;;;;;;;;;;6289141;28;20051;-69
2023/11/15 02:32:32;;;;;;;6.25;4.45;;;;;;;;;;6289331;28;20051;-69
2023/11/15 02:35:34;;;;;;;7.57;5.32;;;;;;;;;;6271105;28;20127;-69
2023/11/15 02:38:36;;;;;;;6.03;3.92;;;;;;;;;;6278970;28;20052;-70
2023/11/15 02:41:40;;;;;;;8.18;4.88;;;;;;;;;;6288735;28;20562;-69
2023/11/15 02:44:42;;;;;;;5.78;4.03;;;;;;;;;;6284880;28;20052;-68
2023/11/15 02:47:44;;;;;;;5.45;3.90;;;;;;;;;;6288594;28;20051;-69
2023/11/15 02:50:46;;;;;;;9.88;5.18;;;;;;;;;;6255087;28;20175;-69
2023/11/15 02:53:48;;;;;;;5.70;3.95;;;;;;;;;;6288661;28;20148;-69
2023/11/15 02:56:50;;;;;;;7.15;4.32;;;;;;;;;;6270596;28;20048;-69
2023/11/15 02:59:52;;;;;;;7.05;3.72;;;;;;;;;;6288096;28;20734;-69
2023/11/15 03:02:56;;;;;;;7.15;4.07;;;;;;;;;;6287497;28;20041;-69
2023/11/15 03:05:58;;;;;;;5.63;4.20;;;;;;;;;;6270442;28;20044;-69
2023/11/15 03:09:00;;;;;;;5.90;4.05;;;;;;;;;;6286630;28;20098;-70
2023/11/15 03:12:03;;;;;;;7.03;4.68;;;;;;;;;;6271338;28;20064;-69
2023/11/15 03:15:05;;;;;;;7.00;4.38;;;;;;;;;;6286639;28;20044;-69
2023/11/15 03:18:09;;;;;;;6.55;5.32;;;;;;;;;;6287970;28;20487;-69
2023/11/15 03:21:12;;;;;;;9.00;5.13;;;;;;;;;;6288262;28;20470;-69
2023/11/15 03:24:14;;;;;;;8.25;4.80;;;;;;;;;;6287233;28;20524;-69
2023/11/15 03:27:17;;;;;;;7.90;4.60;;;;;;;;;;6288408;28;20527;-69
2023/11/15 03:30:19;;;;;;;10.85;4.63;;;;;;;;;;6287353;28;20041;-69
2023/11/15 03:33:21;;;;;;;7.65;4.82;;;;;;;;;;6287974;28;20234;-69
2023/11/15 03:36:24;;;;;;;19.13;7.28;;;;;;;;;;6267681;28;20048;-69
2023/11/15 03:39:27;;;;;;;12.63;6.65;;;;;;;;;;6282136;28;20040;-70
2023/11/15 03:42:30;;;;;;;15.80;6.63;;;;;;;;;;6269409;28;20446;-70
2023/11/15 03:45:32;;;;;;;11.30;6.15;;;;;;;;;;6287038;28;20036;-70
2023/11/15 03:48:34;;;;;;;24.00;8.88;;;;;;;;;;6269748;28;20060;-70
2023/11/15 03:51:36;;;;;;;12.65;5.30;;;;;;;;;;6286958;28;20052;-68
2023/11/15 03:54:39;;;;;;;8.73;5.25;;;;;;;;;;6269034;28;20052;-68
2023/11/15 03:57:42;;;;;;;8.32;3.72;;;;;;;;;;6266523;28;20060;-68
2023/11/15 04:00:44;;;;;;;7.30;4.45;;;;;;;;;;6281882;28;20111;-69
2023/11/15 04:03:48;;;;;;;7.47;4.30;;;;;;;;;;6286336;28;20049;-69
2023/11/15 04:06:50;;;;;;;7.53;4.28;;;;;;;;;;6286850;28;20052;-69
2023/11/15 04:09:52;;;;;;;9.40;4.93;;;;;;;;;;6268531;28;20052;-69
2023/11/15 04:12:55;;;;;;;8.57;5.30;;;;;;;;;;6287085;28;20048;-70
2023/11/15 04:15:57;;;;;;;7.95;4.32;;;;;;;;;;6267876;28;20097;-69
2023/11/15 04:18:59;;;;;;;7.43;3.95;;;;;;;;;;6267619;28;20538;-69
2023/11/15 04:22:01;;;;;;;10.57;5.47;;;;;;;;;;6283136;28;20041;-70
2023/11/15 04:25:14;;;;;;;8.02;4.03;;;;;;;;;;6274118;28;20068;-69
2023/11/15 04:28:16;;;;;;;9.07;5.57;;;;;;;;;;6286918;28;20578;-69
2023/11/15 04:31:20;;;;;;;9.35;6.15;;;;;;;;;;6285777;28;20106;-69
2023/11/15 04:34:23;;;;;;;8.10;4.70;;;;;;;;;;6284167;28;20053;-69
2023/11/15 04:37:25;;;;;;;11.63;5.30;;;;;;;;;;6285999;28;20442;-69
2023/11/15 04:40:28;;;;;;;10.43;4.35;;;;;;;;;;6285779;28;20056;-69
2023/11/15 04:43:30;;;;;;;6.90;4.40;;;;;;;;;;6285808;28;20595;-69
2023/11/15 04:46:35;;;;;;;8.05;5.50;;;;;;;;;;6281097;28;20129;-69
2023/11/15 04:49:40;;;;;;;;;;;;;;;;;;6283415;28;20055;-70
2023/11/15 04:52:43;;;;;;;7.53;4.85;;;;;;;;;;6281955;28;19920;-70
2023/11/15 04:55:45;;;;;;;8.93;5.15;;;;;;;;;;6285358;28;20710;-69
2023/11/15 04:58:49;;;;;;;9.48;5.28;;;;;;;;;;6285079;28;20044;-70
2023/11/15 05:01:52;;;;;;;8.43;4.18;;;;;;;;;;6283561;28;20048;-71
2023/11/15 05:04:54;;;;;;;8.20;4.53;;;;;;;;;;6283284;28;20487;-70
2023/11/15 05:07:57;;;;;;;10.02;4.90;;;;;;;;;;6283996;28;20040;-70
2023/11/15 05:11:01;;;;;;;7.22;4.70;;;;;;;;;;6285076;28;20056;-69
2023/11/15 05:14:03;;;;;;;7.57;5.20;;;;;;;;;;6261484;28;20051;-70
2023/11/15 05:17:06;;;;;;;6.47;4.60;;;;;;;;;;6284945;28;20214;-69
2023/11/15 05:20:08;;;;;;;5.75;4.20;;;;;;;;;;6285317;28;20047;-69
2023/11/15 05:23:11;;;;;;;8.30;4.97;;;;;;;;;;6282591;28;20419;-69
2023/11/15 05:26:13;;;;;;;9.45;5.53;;;;;;;;;;6285634;28;20181;-69
2023/11/15 05:29:15;;;;;;;42.30;28.00;;;;;;;;;;6283858;28;20052;-69
2023/11/15 05:32:17;;;;;;;12.40;6.97;;;;;;;;;;6288739;28;20055;-69
2023/11/15 05:35:19;;;;;;;15.13;10.75;;;;;;;;;;6288567;28;20049;-68
2023/11/15 05:38:22;;;;;;;12.23;7.78;;;;;;;;;;6287453;28;20059;-68
2023/11/15 05:41:24;;;;;;;14.57;9.73;;;;;;;;;;6262806;28;20052;-70
2023/11/15 05:44:31;;;;;;;14.80;8.50;;;;;;;;;;6287923;28;20044;-70
2023/11/15 05:47:33;;;;;;;15.15;7.45;;;;;;;;;;6290011;28;20410;-70
2023/11/15 05:50:35;;;;;;;11.43;6.47;;;;;;;;;;6293524;28;20091;-70
2023/11/15 05:53:37;;;;;;;10.50;6.43;;;;;;;;;;6289657;28;20044;-71
2023/11/15 05:56:44;;;;;;;9.68;5.03;;;;;;;;;;6271839;28;20044;-70
2023/11/15 05:59:46;;;;;;;11.23;5.07;;;;;;;;;;6286872;28;20134;-71
2023/11/15 06:02:49;;;;;;;10.60;4.50;;;;;;;;;;6271841;28;20033;-71
2023/11/15 06:05:52;;;;;;;10.00;6.00;;;;;;;;;;6284571;28;20044;-71
2023/11/15 06:08:54;;;;;;;8.73;4.50;;;;;;;;;;6253198;28;20044;-73
2023/11/15 06:11:56;;;;;;;7.75;4.38;;;;;;;;;;6286514;28;20041;-72
2023/11/15 06:14:59;;;;;;;6.57;4.20;;;;;;;;;;6271569;28;20063;-71
2023/11/15 06:18:01;;;;;;;11.48;4.25;;;;;;;;;;6288054;28;20071;-72
2023/11/15 06:21:05;;;;;;;9.70;4.20;;;;;;;;;;6267743;28;20083;-71
2023/11/15 06:24:07;;;;;;;8.52;4.10;;;;;;;;;;6284528;28;20280;-71
2023/11/15 06:27:10;;;;;;;7.70;4.30;;;;;;;;;;6266807;28;20257;-72
2023/11/15 06:30:13;;;;;;;7.20;4.60;;;;;;;;;;6253187;28;20055;-73
2023/11/15 06:33:15;;;;;;;11.80;7.40;;;;;;;;;;6288993;28;20495;-72
2023/11/15 06:36:20;;;;;;;12.25;7.55;;;;;;;;;;6286717;28;20056;-73
2023/11/15 06:39:23;;;;;;;7.05;3.30;;;;;;;;;;6289260;28;20056;-70
2023/11/15 06:42:25;;;;;;;6.70;3.08;;;;;;;;;;6286862;28;20151;-70
2023/11/15 06:45:28;;;;;;;13.38;4.47;;;;;;;;;;6288512;28;20060;-70
2023/11/15 06:48:30;;;;;;;6.78;3.00;;;;;;;;;;6271393;28;20056;-70
2023/11/15 06:51:32;;;;;;;7.35;3.88;;;;;;;;;;6265858;28;20040;-71
2023/11/15 06:54:34;;;;;;;6.57;3.67;;;;;;;;;;6270508;28;20044;-70
2023/11/15 06:57:41;;;;;;;12.65;5.63;;;;;;;;;;6286884;28;20045;-71
2023/11/15 07:00:44;;;;;;;7.97;3.83;;;;;;;;;;6266667;28;20048;-73
2023/11/15 07:03:47;;;;;;;6.95;3.60;;;;;;;;;;6270525;28;20135;-73
2023/11/15 07:06:50;;;;;;;7.45;3.58;;;;;;;;;;6270719;28;20041;-72
2023/11/15 07:09:54;;;;;;;7.38;4.30;;;;;;;;;;6270155;28;20530;-70
2023/11/15 07:13:00;;;;;;;9.48;3.55;;;;;;;;;;6288094;28;20049;-70
2023/11/15 07:16:04;;;;;;;6.55;3.75;;;;;;;;;;6286977;28;20044;-70
2023/11/15 07:19:06;;;;;;;6.78;3.92;;;;;;;;;;6285078;28;20137;-69
2023/11/15 07:22:09;;;;;;;8.40;3.03;;;;;;;;;;6287224;28;20135;-70
2023/11/15 07:25:12;;;;;;;5.68;3.55;;;;;;;;;;6285189;28;20823;-70
2023/11/15 07:28:14;;;;;;;6.63;3.65;;;;;;;;;;6285667;28;20060;-70
2023/11/15 07:31:18;;;;;;;6.50;2.92;;;;;;;;;;6269693;28;20037;-70
2023/11/15 07:34:22;;;;;;;5.63;2.72;;;;;;;;;;6281584;28;20670;-71
2023/11/15 07:37:24;;;;;;;3.65;2.03;;;;;;;;;;6287441;28;20040;-73
2023/11/15 07:40:26;;;;;;;7.47;3.38;;;;;;;;;;6286834;28;20043;-71
2023/11/15 07:43:30;;;;;;;7.70;2.80;;;;;;;;;;6268705;28;20056;-71
2023/11/15 07:46:32;;;;;;;5.70;2.95;;;;;;;;;;6271678;28;20105;-71
2023/11/15 07:49:35;;;;;;;4.97;2.20;;;;;;;;;;6273549;28;20044;-72
2023/11/15 07:52:38;;;;;;;7.20;2.67;;;;;;;;;;6278502;28;20045;-72
2023/11/15 07:55:40;;;;;;;7.18;5.05;;;;;;;;;;6276343;28;20053;-74
2023/11/15 07:58:43;;;;;;;7.40;3.30;;;;;;;;;;6287981;28;20637;-72
2023/11/15 08:01:45;;;;;;;7.55;2.80;;;;;;;;;;6287055;28;20086;-72
2023/11/15 08:04:50;;;;;;;5.93;2.33;;;;;;;;;;6283005;28;20044;-70
2023/11/15 08:07:53;;;;;;;8.43;2.95;;;;;;;;;;6282613;28;20048;-70
2023/11/15 08:10:55;;;;;;;6.80;2.47;;;;;;;;;;6284459;28;20040;-73
2023/11/15 08:13:57;;;;;;;6.82;2.85;;;;;;;;;;6279682;28;20048;-74
2023/11/15 08:17:00;;;;;;;7.25;3.58;;;;;;;;;;6284585;28;20518;-73
2023/11/15 08:20:05;;;;;;;4.43;2.55;;;;;;;;;;6244119;28;20045;-72
2023/11/15 08:23:08;;;;;;;7.00;3.03;;;;;;;;;;6282207;28;20045;-70
2023/11/15 08:26:11;;;;;;;17.73;12.00;;;;;;;;;;6265950;28;20108;-70
2023/11/15 08:29:13;;;;;;;18.73;10.45;;;;;;;;;;6280844;28;20562;-70
2023/11/15 08:32:15;;;;;;;28.40;14.85;;;;;;;;;;6284753;28;20050;-70
2023/11/15 08:35:17;;;;;;;10.10;5.13;;;;;;;;;;6284639;28;20087;-71
2023/11/15 08:38:24;;;;;;;8.40;6.25;;;;;;;;;;6285607;28;20048;-71
2023/11/15 08:41:26;;;;;;;8.27;5.53;;;;;;;;;;6285619;28;20609;-72
2023/11/15 08:44:28;;;;;;;8.57;4.82;;;;;;;;;;6282962;28;20083;-71
2023/11/15 08:47:33;;;;;;;9.07;5.07;;;;;;;;;;6244903;28;20103;-70
2023/11/15 08:50:35;;;;;;;13.45;3.75;;;;;;;;;;6281655;28;20896;-71
2023/11/15 08:53:39;;;;;;;11.13;4.40;;;;;;;;;;6281530;28;20127;-71
2023/11/15 08:56:41;;;;;;;11.57;5.10;;;;;;;;;;6258751;28;20113;-72
2023/11/15 08:59:45;;;;;;;14.15;8.13;;;;;;;;;;6265045;28;20097;-72
2023/11/15 09:02:48;;;;;;;12.65;8.88;;;;;;;;;;6285850;28;20071;-69
2023/11/15 09:05:51;;;;;;;7.70;4.32;;;;;;;;;;6279602;28;20036;-71
2023/11/15 09:08:54;;;;;;;7.80;3.72;;;;;;;;;;6284399;28;20463;-71
2023/11/15 09:11:56;;;;;;;7.50;2.88;;;;;;;;;;6283743;28;20036;-70
2023/11/15 09:14:59;;;;;;;8.07;2.92;;;;;;;;;;6264611;28;20165;-70
2023/11/15 09:18:04;;;;;;;7.10;2.33;;;;;;;;;;6264423;28;20041;-70
2023/11/15 09:21:07;;;;;;;4.57;1.65;;;;;;;;;;6282896;28;20533;-69
2023/11/15 09:24:09;;;;;;;4.05;1.38;;;;;;;;;;6269952;28;20045;-68
2023/11/15 09:27:12;;;;;;;5.32;2.25;;;;;;;;;;6278169;28;20471;-72
2023/11/15 09:30:21;;;;;;;4.28;2.78;;;;;;;;;;6254606;28;20041;-70
2023/11/15 09:33:23;;;;;;;4.13;2.25;;;;;;;;;;6285956;28;20133;-69
2023/11/15 09:50:23;;;;;;;3.58;2.00;;;;;;;;;;5926009;22;13307029;-65
2023/11/15 10:45:35;;;;;;;10.52;7.57;;;;;;;;;;6299974;27;21371;-68
2023/11/15 10:48:39;;;;;;;5.15;3.38;;;;;;;;;;6250317;27;20430;-68
2023/11/15 10:51:43;;;;;;;6.15;3.78;;;;;;;;;;6277323;27;20720;-68
2023/11/15 10:54:45;;;;;;;2.55;2.33;;;;;;;;;;6257997;27;20117;-68
2023/11/15 10:57:48;;;;;;;6.03;5.50;;;;;;;;;;6262492;27;20454;-68
2023/11/15 11:00:54;;;;;;;2.97;2.42;;;;;;;;;;6262968;27;20129;-69
2023/11/15 11:03:57;;;;;;;2.30;1.48;;;;;;;;;;6279126;27;20044;-67
2023/11/15 11:07:08;;;;;;;5.72;5.35;;;;;;;;;;6330150;27;21054;-68
2023/11/15 11:10:20;;;;;;;3.53;3.22;;;;;;;;;;6277300;27;20102;-68
2023/11/15 11:13:23;;;;;;;3.00;1.98;;;;;;;;;;6293528;27;20092;-68
2023/11/15 11:16:28;;;;;;;4.00;3.70;;;;;;;;;;6311650;27;20050;-68
2023/11/15 11:19:43;;;;;;;3.67;1.90;;;;;;;;;;6250966;27;20045;-68
2023/11/15 11:23:11;;;;;;;3.70;3.40;;;;;;;;;;6258205;27;20076;-68
2023/11/15 11:26:33;;;;;;;2.88;2.67;;;;;;;;;;6291519;27;20055;-75
2023/11/15 11:30:01;;;;;;;2.78;1.35;;;;;;;;;;6244141;27;20525;-68
2023/11/15 11:33:10;;;;;;;3.05;1.65;;;;;;;;;;6255980;27;20040;-64
2023/11/15 11:36:43;;;;;;;4.13;3.80;;;;;;;;;;6265294;27;20049;-65
2023/11/15 11:39:45;;;;;;;3.38;2.05;;;;;;;;;;6259543;27;20049;-65
2023/11/15 11:42:52;;;;;;;3.40;2.20;;;;;;;;;;6278075;27;20603;-65
2023/11/15 11:45:54;;;;;;;4.22;3.85;;;;;;;;;;6247178;27;20045;-66
2023/11/15 11:49:02;;;;;;;4.88;2.47;;;;;;;;;;6278159;27;20038;-67
2023/11/15 11:52:04;;;;;;;4.80;1.80;;;;;;;;;;6285937;27;20045;-65
2023/11/15 11:55:08;;;;;;;3.70;1.92;;;;;;;;;;6242914;28;20050;-65
2023/11/15 11:58:10;;;;;;;5.18;4.68;;;;;;;;;;6312323;27;20052;-65
2023/11/15 12:01:12;;;;;;;3.10;2.42;;;;;;;;;;6289449;27;20039;-66
2023/11/15 12:04:15;;;;;;;3.60;2.92;;;;;;;;;;6256160;27;20042;-66
2023/11/15 12:07:17;;;;;;;3.72;3.42;;;;;;;;;;6311672;27;20056;-65
2023/11/15 12:10:20;;;;;;;4.28;3.80;;;;;;;;;;6244179;28;20704;-68
2023/11/15 12:13:22;;;;;;;3.28;2.90;;;;;;;;;;6303709;27;20057;-67
2023/11/15 12:16:25;;;;;;;5.00;4.53;;;;;;;;;;6312647;27;20055;-67
2023/11/15 12:19:39;;;;;;;3.55;2.55;;;;;;;;;;6240553;27;20175;-68
2023/11/15 12:22:43;;;;;;;3.03;2.70;;;;;;;;;;6258738;27;20899;-68
2023/11/15 12:25:47;;;;;;;3.65;3.08;;;;;;;;;;6233869;28;20046;-68
2023/11/15 12:28:51;;;;;;;5.60;5.10;;;;;;;;;;6304906;27;20057;-69
2023/11/15 12:31:56;;;;;;;4.78;3.30;;;;;;;;;;6234339;28;20047;-68
2023/11/15 12:34:58;;;;;;;6.60;4.82;;;;;;;;;;6250908;27;20158;-68
2023/11/15 12:49:39;;;;;;;9.52;6.05;;;;;;;;;;6347700;27;20626;-67
2023/11/15 12:52:41;;;;;;;16.63;8.82;;;;;;;;;;6349376;27;20122;-67
2023/11/15 12:55:55;;;;;;;10.15;6.00;;;;;;;;;;6348335;27;20555;-68
2023/11/15 12:58:57;;;;;;;7.43;4.80;;;;;;;;;;6346041;27;20040;-70
2023/11/15 13:01:59;;;;;;;8.98;5.60;;;;;;;;;;6334923;28;20063;-69
2023/11/15 13:05:05;;;;;;;9.50;6.50;;;;;;;;;;6355398;27;20039;-70
2023/11/15 13:08:07;;;;;;;9.77;8.10;;;;;;;;;;6351470;27;20146;-70
2023/11/15 13:11:26;;;;;;;10.15;4.40;;;;;;;;;;6344651;28;20055;-70
2023/11/15 13:14:28;;;;;;;7.72;5.90;;;;;;;;;;6353219;28;20043;-70
2023/11/15 13:17:32;;;;;;;8.50;4.85;;;;;;;;;;6352251;27;20036;-70
2023/11/15 13:20:35;;;;;;;11.18;6.00;;;;;;;;;;6345936;28;20146;-72
2023/11/15 13:23:47;;;;;;;12.48;8.13;;;;;;;;;;6357389;27;20065;-73
2023/11/15 13:26:50;;;;;;;14.07;11.13;;;;;;;;;;6353620;27;20043;-73
2023/11/15 13:29:53;;;;;;;9.68;5.90;;;;;;;;;;6356009;27;20158;-73
2023/11/15 13:32:55;;;;;;;10.35;7.03;;;;;;;;;;6338298;28;20028;-69
2023/11/15 13:35:58;;;;;;;10.32;8.23;;;;;;;;;;6354318;27;20047;-68
2023/11/15 13:39:04;;;;;;;10.77;8.82;;;;;;;;;;6347654;27;20104;-68
2023/11/15 13:42:07;;;;;;;14.07;11.07;;;;;;;;;;6354052;27;20043;-68
2023/11/15 13:45:10;;;;;;;9.25;7.68;;;;;;;;;;6347342;27;20628;-68
2023/11/15 13:48:13;;;;;;;19.15;14.82;;;;;;;;;;6344060;27;20032;-68
2023/11/15 13:51:19;;;;;;;17.00;13.90;;;;;;;;;;6334128;28;20051;-69
2023/11/15 13:54:22;;;;;;;12.73;11.43;;;;;;;;;;6327556;28;20138;-68
2023/11/15 13:57:24;;;;;;;11.52;10.38;;;;;;;;;;6336656;28;20092;-68
2023/11/15 14:00:33;;;;;;;11.88;8.95;;;;;;;;;;6337937;28;20441;-68
2023/11/15 14:03:35;;;;;;;9.45;8.55;;;;;;;;;;6332397;27;20047;-68
2023/11/15 14:06:37;;;;;;;9.70;7.85;;;;;;;;;;6338540;28;20047;-67
2023/11/15 14:09:40;;;;;;;12.80;9.75;;;;;;;;;;6338008;28;20055;-68
2023/11/15 14:25:21;;;;;;;9.25;5.15;;;;;;;;;;6344763;27;20834;-69
2023/11/15 14:28:23;;;;;;;8.88;6.43;;;;;;;;;;6348536;27;20043;-69
2023/11/15 14:31:25;;;;;;;10.90;6.47;;;;;;;;;;6343138;28;20035;-67
2023/11/15 14:34:28;;;;;;;10.25;5.88;;;;;;;;;;6347255;27;20051;-68
2023/11/15 14:37:33;;;;;;;7.20;4.50;;;;;;;;;;6356175;27;20063;-68
2023/11/15 14:40:38;;;;;;;5.75;4.15;;;;;;;;;;6353497;28;20043;-72
2023/11/15 14:43:44;;;;;;;9.00;5.80;;;;;;;;;;6353561;28;20047;-71
2023/11/15 14:46:47;;;;;;;8.40;5.75;;;;;;;;;;6339913;27;20050;-70
2023/11/15 14:49:49;;;;;;;7.15;3.67;;;;;;;;;;6359101;27;20260;-72
2023/11/15 14:56:11;;;;;;;4.95;2.88;;;;;;;;;;6353823;27;20063;-73
2023/11/15 14:59:17;;;;;;;4.68;2.17;;;;;;;;;;6325025;27;20071;-72
2023/11/15 15:02:19;;;;;;;5.00;2.50;;;;;;;;;;6356688;27;20324;-73
2023/11/15 15:05:22;;;;;;;3.92;2.20;;;;;;;;;;6331797;27;20050;-71
2023/11/15 15:08:24;;;;;;;10.70;5.53;;;;;;;;;;6347127;28;20742;-70
2023/11/15 15:11:26;;;;;;;7.20;3.63;;;;;;;;;;6350210;27;20874;-71
2023/11/15 15:14:29;;;;;;;7.78;3.70;;;;;;;;;;6343850;27;20043;-71
2023/11/15 15:17:31;;;;;;;3.20;1.77;;;;;;;;;;6357483;28;20051;-71
2023/11/15 15:20:34;;;;;;;6.30;2.10;;;;;;;;;;6355142;27;20062;-70
2023/11/15 15:23:37;;;;;;;3.65;1.85;;;;;;;;;;6357733;28;20039;-70
2023/11/15 15:26:40;;;;;;;5.15;4.50;;;;;;;;;;6341792;28;20825;-70
2023/11/15 15:29:42;;;;;;;3.15;2.10;;;;;;;;;;6342925;28;20052;-70
2023/11/15 15:32:45;;;;;;;3.97;1.88;;;;;;;;;;6347480;28;20062;-70
2023/11/15 15:35:48;;;;;;;3.72;1.60;;;;;;;;;;6343092;28;20042;-71
2023/11/15 15:38:50;;;;;;;3.70;2.63;;;;;;;;;;6348342;28;20138;-71
2023/11/15 15:41:53;;;;;;;3.28;2.15;;;;;;;;;;6335229;28;20760;-70
2023/11/15 15:44:55;;;;;;;4.20;2.17;;;;;;;;;;6341129;28;20196;-70
2023/11/15 15:47:58;;;;;;;3.72;1.95;;;;;;;;;;6326722;28;20047;-70
2023/11/15 15:51:01;;;;;;;3.72;2.03;;;;;;;;;;6340249;28;20047;-70
2023/11/15 15:54:03;;;;;;;6.07;4.53;;;;;;;;;;6340097;28;20039;-69
2023/11/15 15:57:05;;;;;;;14.55;6.10;;;;;;;;;;6321135;28;20047;-69
2023/11/15 16:00:07;;;;;;;26.17;10.23;;;;;;;;;;6340375;28;20051;-69
2023/11/15 16:03:10;;;;;;;7.25;3.75;;;;;;;;;;6336121;28;20039;-69
2023/11/15 16:06:12;;;;;;;5.38;3.67;;;;;;;;;;6326961;28;20056;-69
2023/11/15 16:09:14;;;;;;;9.07;5.03;;;;;;;;;;6336548;28;20050;-70
2023/11/15 16:12:16;;;;;;;13.25;6.32;;;;;;;;;;6310780;28;20040;-70
2023/11/15 16:15:19;;;;;;;7.68;4.72;;;;;;;;;;6334963;28;20052;-68
2023/11/15 16:18:21;;;;;;;6.03;3.30;;;;;;;;;;6336747;27;20044;-69
2023/11/15 16:21:24;;;;;;;9.02;4.75;;;;;;;;;;6332567;27;20047;-69
2023/11/15 16:24:26;;;;;;;9.43;4.88;;;;;;;;;;6325648;28;20720;-70
2023/11/15 16:27:28;;;;;;;6.45;3.42;;;;;;;;;;6343762;28;20059;-68
2023/11/15 16:30:38;;;;;;;5.50;3.38;;;;;;;;;;6347329;28;20133;-69
2023/11/15 16:33:40;;;;;;;5.45;2.95;;;;;;;;;;6350531;28;20035;-69
2023/11/15 16:36:43;;;;;;;5.50;3.13;;;;;;;;;;6333439;28;20653;-69
2023/11/15 16:39:46;;;;;;;5.63;3.22;;;;;;;;;;6339419;28;20525;-67
2023/11/15 16:42:48;;;;;;;5.95;3.28;;;;;;;;;;6331784;28;20115;-69
2023/11/15 16:45:51;;;;;;;10.50;4.78;;;;;;;;;;6341552;28;20544;-70
2023/11/15 16:48:54;;;;;;;10.15;6.15;;;;;;;;;;6340352;28;20084;-71
2023/11/15 16:51:59;;;;;;;7.75;4.53;;;;;;;;;;6331688;28;20122;-71
2023/11/15 16:55:02;;;;;;;6.30;3.63;;;;;;;;;;6334548;28;20040;-70
2023/11/15 16:58:05;;;;;;;5.63;4.15;;;;;;;;;;6302511;28;20054;-70
2023/11/15 17:01:07;;;;;;;6.45;3.42;;;;;;;;;;6328599;28;20048;-70
2023/11/15 17:04:10;;;;;;;6.63;2.92;;;;;;;;;;6350435;27;20039;-70
2023/11/15 17:07:12;;;;;;;9.63;6.63;;;;;;;;;;6336157;28;20630;-71
2023/11/15 17:10:14;;;;;;;12.07;7.88;;;;;;;;;;6336938;28;20876;-69
2023/11/15 17:13:16;;;;;;;16.25;8.70;;;;;;;;;;6311693;28;20592;-70
2023/11/15 17:16:18;;;;;;;15.75;8.73;;;;;;;;;;6326711;28;20044;-70
2023/11/15 17:19:20;;;;;;;7.07;6.38;;;;;;;;;;6322843;28;20534;-69
2023/11/15 17:22:23;;;;;;;4.90;2.38;;;;;;;;;;6332892;28;20047;-69
2023/11/15 17:25:25;;;;;;;7.85;4.47;;;;;;;;;;6336485;27;20039;-69
2023/11/15 17:28:28;;;;;;;8.48;5.85;;;;;;;;;;6331677;28;20131;-69
2023/11/15 17:31:30;;;;;;;10.13;5.15;;;;;;;;;;6335559;28;20052;-70
2023/11/15 17:34:33;;;;;;;18.58;11.95;;;;;;;;;;6329428;27;20560;-70
2023/11/15 17:37:35;;;;;;;19.88;13.35;;;;;;;;;;6326110;28;20039;-70
2023/11/15 17:40:37;;;;;;;29.45;13.07;;;;;;;;;;6329262;28;20505;-69
2023/11/15 17:43:39;;;;;;;11.23;6.00;;;;;;;;;;6335208;28;20052;-68
2023/11/15 17:46:42;;;;;;;10.35;5.40;;;;;;;;;;6334629;28;20058;-68
2023/11/15 17:49:44;;;;;;;6.18;5.13;;;;;;;;;;6335003;28;20047;-68
2023/11/15 17:52:46;;;;;;;23.52;12.98;;;;;;;;;;6333124;28;20048;-68
2023/11/15 17:55:48;;;;;;;19.52;9.90;;;;;;;;;;6333752;28;20494;-68
2023/11/15 17:58:51;;;;;;;16.00;8.15;;;;;;;;;;6331343;28;20290;-69
2023/11/15 18:01:54;;;;;;;19.95;7.90;;;;;;;;;;6332290;28;20048;-68
2023/11/15 18:05:00;;;;;;;15.30;8.00;;;;;;;;;;6332218;28;20036;-69
2023/11/15 18:08:03;;;;;;;15.20;8.65;;;;;;;;;;6334617;28;20051;-69
2023/11/15 18:11:05;;;;;;;17.85;8.93;;;;;;;;;;6334878;28;20130;-70
2023/11/15 18:14:07;;;;;;;23.95;10.60;;;;;;;;;;6334810;28;20034;-69
2023/11/15 18:17:09;;;;;;;32.25;12.45;;;;;;;;;;6318230;28;20051;-69
2023/11/15 18:20:12;;;;;;;31.55;15.05;;;;;;;;;;6321486;28;20052;-68
2023/11/15 18:23:14;;;;;;;24.30;9.95;;;;;;;;;;6334815;28;20058;-68
2023/11/15 18:26:22;;;;;;;22.73;9.98;;;;;;;;;;6336600;28;20536;-68
2023/11/15 18:29:24;;;;;;;23.60;11.32;;;;;;;;;;6335162;28;20047;-69
2023/11/15 18:32:26;;;;;;;13.10;6.75;;;;;;;;;;6352491;28;20080;-69
2023/11/15 18:35:29;;;;;;;7.80;4.85;;;;;;;;;;6347234;28;20042;-70
2023/11/15 18:38:31;;;;;;;12.25;6.75;;;;;;;;;;6339168;28;20043;-69
2023/11/15 18:41:34;;;;;;;15.13;6.95;;;;;;;;;;6336111;28;20055;-70
2023/11/15 18:44:37;;;;;;;10.07;4.95;;;;;;;;;;6335969;28;20518;-69
2023/11/15 18:47:40;;;;;;;12.73;6.97;;;;;;;;;;6327825;28;20574;-70
2023/11/15 18:50:42;;;;;;;16.30;7.85;;;;;;;;;;6334377;28;20735;-70
2023/11/15 18:53:46;;;;;;;11.15;6.75;;;;;;;;;;6328457;28;20040;-69
2023/11/15 18:56:48;;;;;;;11.95;6.10;;;;;;;;;;6335218;28;20042;-69
2023/11/15 18:59:51;;;;;;;10.73;5.80;;;;;;;;;;6338256;28;20131;-68
2023/11/15 19:02:55;;;;;;;9.23;5.53;;;;;;;;;;6319813;28;20047;-70
2023/11/15 19:06:00;;;;;;;10.00;4.47;;;;;;;;;;6335730;28;20047;-69
2023/11/15 19:09:05;;;;;;;7.05;3.85;;;;;;;;;;6331381;28;20048;-68
2023/11/15 19:12:07;;;;;;;7.15;3.78;;;;;;;;;;6339519;28;20196;-69
2023/11/15 19:15:12;;;;;;;6.68;4.35;;;;;;;;;;6330510;28;20081;-69
2023/11/15 19:18:14;;;;;;;;;;;;;;;;;;6326073;28;20159;-70
2023/11/15 19:21:17;;;;;;;9.93;5.25;;;;;;;;;;6326077;27;20452;-68
2023/11/15 19:24:19;;;;;;;12.60;7.22;;;;;;;;;;6335661;28;20047;-68
2023/11/15 19:27:23;;;;;;;13.05;7.60;;;;;;;;;;6337442;28;20055;-68
2023/11/15 19:30:26;;;;;;;12.65;7.32;;;;;;;;;;6336419;28;20532;-69
2023/11/15 19:33:28;;;;;;;15.88;8.52;;;;;;;;;;6334516;28;20070;-68
2023/11/15 19:36:30;;;;;;;9.98;6.45;;;;;;;;;;6337096;28;20048;-68
2023/11/15 19:39:32;;;;;;;9.48;8.57;;;;;;;;;;6334914;28;20214;-67
2023/11/15 19:42:38;;;;;;;12.23;7.00;;;;;;;;;;6332363;27;20044;-67
2023/11/15 19:45:40;;;;;;;8.32;5.13;;;;;;;;;;6333821;28;20070;-67